createdAt,value
2023-03-29T00:03:31.768Z,60.60
2023-03-29T00:08:39.216Z,60.25
2023-03-29T00:13:46.105Z,60.85
2023-03-29T00:18:53.043Z,61.23
2023-03-29T00:24:00.212Z,61.46
2023-03-29T00:29:07.254Z,61.51
2023-03-29T00:34:14.624Z,61.89
2023-03-29T00:39:22.275Z,62.12
2023-03-29T00:45:01.413Z,62.37
2023-03-29T00:50:15.917Z,62.42
2023-03-29T00:55:25.890Z,62.75
2023-03-29T01:00:37.913Z,62.93
2023-03-29T01:05:48.923Z,63.17
2023-03-29T01:10:59.972Z,63.30
2023-03-29T01:16:10.368Z,63.53
2023-03-29T01:21:24.592Z,63.69
2023-03-29T01:26:37.601Z,63.92
2023-03-29T01:31:49.877Z,64.20
2023-03-29T01:37:02.229Z,64.48
2023-03-29T01:42:20.138Z,64.76
2023-03-29T01:47:34.250Z,64.94
2023-03-29T01:52:48.793Z,64.96
2023-03-29T01:57:59.851Z,65.01
2023-03-29T02:03:11.185Z,64.92
2023-03-29T02:08:21.510Z,65.14
2023-03-29T02:13:28.630Z,65.46
2023-03-29T02:18:37.196Z,65.52
2023-03-29T02:23:47.637Z,65.73
2023-03-29T02:28:54.766Z,66.06
2023-03-29T02:34:06.861Z,66.24
2023-03-29T02:39:16.352Z,66.38
2023-03-29T02:44:27.510Z,66.72
2023-03-29T02:49:34.657Z,66.79
2023-03-29T02:54:45.535Z,67.13
2023-03-29T02:59:52.686Z,67.24
2023-03-29T03:04:59.716Z,67.41
2023-03-29T03:10:08.063Z,67.59
2023-03-29T03:15:17.272Z,67.88
2023-03-29T03:20:24.406Z,68.18
2023-03-29T03:25:33.145Z,68.30
2023-03-29T03:30:42.279Z,68.50
2023-03-29T03:36:02.988Z,68.64
2023-03-29T03:41:11.877Z,68.70
2023-03-29T03:46:19.431Z,68.89
2023-03-29T03:51:28.926Z,68.96
2023-03-29T03:56:36.436Z,69.04
2023-03-29T04:01:50.028Z,69.20
2023-03-29T04:07:02.958Z,69.36
2023-03-29T04:12:16.514Z,69.61
2023-03-29T04:17:24.428Z,69.73
2023-03-29T04:22:36.313Z,69.97
2023-03-29T04:27:44.263Z,70.21
2023-03-29T04:33:21.236Z,70.32
2023-03-29T04:38:36.119Z,70.52
2023-03-29T04:43:46.767Z,70.68
2023-03-29T04:49:07.405Z,70.67
2023-03-29T04:54:17.848Z,70.76
2023-03-29T04:59:43.768Z,71.03
2023-03-29T05:05:17.133Z,70.99
2023-03-29T05:10:25.554Z,70.96
2023-03-29T05:15:33.382Z,71.08
2023-03-29T05:20:40.602Z,71.25
2023-03-29T05:25:50.102Z,71.57
2023-03-29T05:31:05.850Z,71.37
2023-03-29T05:36:17.354Z,71.42
2023-03-29T05:41:26.460Z,71.56
2023-03-29T05:46:52.053Z,71.78
2023-03-29T05:51:59.236Z,71.94
2023-03-29T05:57:07.185Z,71.99
2023-03-29T06:02:16.179Z,72.09
2023-03-29T06:07:27.902Z,72.24
2023-03-29T06:12:55.600Z,72.26
2023-03-29T06:18:04.793Z,72.28
2023-03-29T06:23:13.290Z,72.21
2023-03-29T06:28:20.941Z,72.19
2023-03-29T06:33:28.154Z,72.03
2023-03-29T06:38:53.958Z,71.85
2023-03-29T06:44:17.546Z,71.32
2023-03-29T06:49:38.447Z,70.79
2023-03-29T06:55:12.056Z,70.42
2023-03-29T07:00:28.110Z,69.79
2023-03-29T07:05:53.183Z,69.01
2023-03-29T07:11:01.937Z,68.65
2023-03-29T07:16:47.426Z,68.03
2023-03-29T07:22:00.336Z,67.42
2023-03-29T07:27:32.766Z,66.91
2023-03-29T07:32:40.220Z,66.63
2023-03-29T07:38:05.763Z,66.34
2023-03-29T07:43:13.181Z,65.66
2023-03-29T07:48:22.324Z,64.79
2023-03-29T07:53:32.837Z,64.48
2023-03-29T07:58:42.898Z,64.19
2023-03-29T08:03:52.381Z,63.74
2023-03-29T08:09:00.428Z,63.67
2023-03-29T08:14:09.143Z,63.59
2023-03-29T08:19:36.287Z,63.10
2023-03-29T08:24:45.332Z,62.78
2023-03-29T08:29:52.678Z,62.42
2023-03-29T08:35:01.407Z,61.48
2023-03-29T08:40:21.816Z,60.48
2023-03-29T08:45:37.839Z,59.31
2023-03-29T08:50:52.897Z,59.25
2023-03-29T08:56:03.747Z,59.03
2023-03-29T09:01:16.546Z,58.85
2023-03-29T09:06:29.316Z,58.06
2023-03-29T09:12:04.639Z,57.06
2023-03-29T09:17:24.060Z,57.05
2023-03-29T09:22:43.535Z,55.82
2023-03-29T09:27:56.776Z,56.98
2023-03-29T09:33:20.007Z,56.34
2023-03-29T09:38:43.793Z,55.21
2023-03-29T09:43:53.961Z,55.81
2023-03-29T09:49:06.342Z,55.38
2023-03-29T09:54:15.200Z,54.22
2023-03-29T09:59:46.222Z,53.78
2023-03-29T10:04:59.751Z,54.36
2023-03-29T10:10:11.661Z,51.91
2023-03-29T10:15:29.415Z,50.27
2023-03-29T10:20:40.090Z,51.69
2023-03-29T10:25:47.603Z,50.45
2023-03-29T10:30:59.239Z,51.16
2023-03-29T10:36:12.948Z,51.49
2023-03-29T10:41:21.794Z,50.86
2023-03-29T10:46:33.652Z,50.29
2023-03-29T10:51:47.371Z,50.13
2023-03-29T10:56:57.106Z,50.10
2023-03-29T11:02:45.966Z,45.34
2023-03-29T11:08:23.157Z,46.80
2023-03-29T11:13:39.211Z,47.10
2023-03-29T11:19:10.483Z,47.11
2023-03-29T11:24:48.020Z,45.95
2023-03-29T11:30:08.040Z,45.90
2023-03-29T11:35:29.473Z,46.54
2023-03-29T11:40:53.475Z,45.67
2023-03-29T11:46:04.843Z,45.92
2023-03-29T11:51:14.682Z,45.85
2023-03-29T11:56:29.566Z,44.99
2023-03-29T12:01:40.683Z,43.98
2023-03-29T12:06:56.150Z,42.02
2023-03-29T12:12:10.066Z,43.49
2023-03-29T12:17:20.224Z,41.45
2023-03-29T12:22:27.570Z,40.06
2023-03-29T12:27:41.911Z,40.46
2023-03-29T12:33:20.344Z,40.49
2023-03-29T12:38:37.834Z,39.81
2023-03-29T12:44:25.445Z,37.27
2023-03-29T12:49:41.678Z,35.34
2023-03-29T12:54:56.369Z,37.30
2023-03-29T13:00:19.801Z,36.02
2023-03-29T13:05:38.226Z,33.53
2023-03-29T13:10:53.032Z,32.94
2023-03-29T13:16:12.881Z,34.43
2023-03-29T13:21:27.117Z,34.65
2023-03-29T13:26:46.764Z,33.51
2023-03-29T13:31:59.906Z,32.06
2023-03-29T13:37:14.787Z,32.83
2023-03-29T13:42:27.808Z,30.93
2023-03-29T13:48:02.428Z,30.84
2023-03-29T13:53:20.826Z,30.46
2023-03-29T13:58:37.857Z,29.37
2023-03-29T14:03:49.614Z,30.45
2023-03-29T14:08:57.000Z,29.04
2023-03-29T14:14:08.230Z,29.61
2023-03-29T14:19:19.424Z,29.13
2023-03-29T14:24:30.584Z,28.81
2023-03-29T14:29:37.995Z,29.15
2023-03-29T14:34:48.324Z,28.79
2023-03-29T14:39:56.531Z,29.23
2023-03-29T14:45:09.425Z,29.27
2023-03-29T14:50:22.497Z,30.57
2023-03-29T14:55:31.026Z,29.89
2023-03-29T15:00:43.610Z,29.48
2023-03-29T15:05:54.425Z,30.14
2023-03-29T15:11:00.099Z,29.99
2023-03-29T15:16:09.885Z,29.51
2023-03-29T15:21:21.906Z,30.22
2023-03-29T15:26:32.604Z,30.31
2023-03-29T15:31:41.847Z,29.65
2023-03-29T15:36:49.168Z,29.89
2023-03-29T15:41:57.504Z,30.07
2023-03-29T15:47:04.844Z,30.48
2023-03-29T15:52:12.335Z,31.50
2023-03-29T15:57:20.535Z,33.24
2023-03-29T16:02:28.122Z,34.69
2023-03-29T16:07:36.699Z,36.04
2023-03-29T16:12:43.563Z,37.39
2023-03-29T16:17:50.752Z,38.59
2023-03-29T16:22:57.710Z,39.72
2023-03-29T16:28:05.019Z,40.20
2023-03-29T16:33:12.145Z,41.69
2023-03-29T16:38:19.137Z,42.40
2023-03-29T16:43:26.076Z,43.40
2023-03-29T16:48:33.741Z,43.43
2023-03-29T16:53:40.734Z,43.82
2023-03-29T16:58:47.793Z,43.83
2023-03-29T17:03:54.980Z,44.29
2023-03-29T17:09:03.237Z,44.94
2023-03-29T17:14:10.487Z,45.40
2023-03-29T17:19:17.508Z,45.59
2023-03-29T17:24:24.653Z,45.74
2023-03-29T17:29:31.812Z,45.65
2023-03-29T17:34:38.996Z,46.64
2023-03-29T17:39:46.352Z,47.00
2023-03-29T17:44:53.856Z,47.41
2023-03-29T17:50:01.386Z,47.68
2023-03-29T17:55:13.980Z,47.93
2023-03-29T18:00:22.935Z,47.94
2023-03-29T18:05:30.051Z,48.16
2023-03-29T18:10:37.817Z,49.58
2023-03-29T18:15:45.564Z,49.66
2023-03-29T18:20:53.128Z,49.76
2023-03-29T18:26:03.985Z,49.67
2023-03-29T18:31:17.450Z,49.65
2023-03-29T18:36:26.229Z,50.16
2023-03-29T18:41:33.508Z,50.79
2023-03-29T18:46:40.754Z,51.29
2023-03-29T18:51:47.747Z,51.55
2023-03-29T18:56:56.047Z,51.65
2023-03-29T19:02:05.500Z,52.30
2023-03-29T19:07:12.637Z,52.47
2023-03-29T19:12:19.652Z,52.40
2023-03-29T19:17:27.859Z,52.60
2023-03-29T19:22:35.076Z,52.56
2023-03-29T19:27:42.862Z,52.94
2023-03-29T19:32:50.081Z,53.10
2023-03-29T19:37:57.708Z,53.36
2023-03-29T19:43:04.664Z,53.42
2023-03-29T19:48:19.493Z,54.43
2023-03-29T19:53:28.759Z,54.43
2023-03-29T19:58:36.078Z,54.96
2023-03-29T20:03:43.847Z,55.40
2023-03-29T20:08:50.966Z,55.49
2023-03-29T20:13:58.283Z,55.78
2023-03-29T20:19:07.265Z,55.94
2023-03-29T20:24:14.377Z,56.29
2023-03-29T20:29:22.264Z,56.32
2023-03-29T20:34:29.700Z,56.49
2023-03-29T20:39:37.327Z,56.25
2023-03-29T20:44:50.701Z,56.78
2023-03-29T20:49:58.133Z,56.75
2023-03-29T20:55:05.953Z,56.97
2023-03-29T21:00:14.421Z,57.17
2023-03-29T21:05:21.856Z,57.49
2023-03-29T21:10:29.843Z,57.46
2023-03-29T21:15:36.849Z,57.50
2023-03-29T21:20:44.910Z,57.66
2023-03-29T21:25:51.968Z,57.87
2023-03-29T21:30:59.122Z,58.00
2023-03-29T21:36:06.579Z,57.98
2023-03-29T21:41:14.545Z,58.27
2023-03-29T21:46:21.408Z,58.53
2023-03-29T21:51:28.386Z,58.87
2023-03-29T21:56:35.357Z,59.24
2023-03-29T22:01:42.269Z,59.29
2023-03-29T22:06:49.475Z,59.62
2023-03-29T22:11:57.049Z,59.82
2023-03-29T22:17:05.875Z,59.86
2023-03-29T22:22:14.676Z,59.92
2023-03-29T22:27:21.798Z,60.36
2023-03-29T22:32:31.405Z,60.62
2023-03-29T22:37:43.291Z,60.77
2023-03-29T22:42:48.737Z,60.92
2023-03-29T22:47:55.815Z,60.92
2023-03-29T22:53:02.887Z,61.06
2023-03-29T22:58:09.778Z,61.14
2023-03-29T23:03:17.112Z,61.41
2023-03-29T23:08:24.682Z,61.66
2023-03-29T23:13:33.625Z,61.69
2023-03-29T23:18:40.814Z,61.86
2023-03-29T23:23:48.210Z,61.98
2023-03-29T23:28:57.466Z,62.18
2023-03-29T23:34:04.426Z,62.48
2023-03-29T23:39:11.317Z,62.46
2023-03-29T23:44:18.248Z,62.65
2023-03-29T23:49:25.208Z,62.83
2023-03-29T23:54:32.491Z,62.97
2023-03-29T23:59:40.157Z,63.07
